sensor_id;sensor_type;location;lat;lon;timestamp;pressure;altitude;pressure_sealevel;temperature;humidity
39449;BME280;25151;45.566;9.382;2023-08-24T00:00:22;99742.38;;;29.48;50.11
39449;BME280;25151;45.566;9.382;2023-08-24T00:02:49;99737.19;;;29.40;50.44
39449;BME280;25151;45.566;9.382;2023-08-24T00:05:16;99733.88;;;29.42;50.29
39449;BME280;25151;45.566;9.382;2023-08-24T00:07:43;99751.69;;;29.48;50.34
39449;BME280;25151;45.566;9.382;2023-08-24T00:10:10;99751.69;;;29.48;50.29
39449;BME280;25151;45.566;9.382;2023-08-24T00:12:37;99752.44;;;29.43;50.08
39449;BME280;25151;45.566;9.382;2023-08-24T00:15:07;99726.59;;;29.41;50.07
39449;BME280;25151;45.566;9.382;2023-08-24T00:17:34;99752.44;;;29.49;49.90
39449;BME280;25151;45.566;9.382;2023-08-24T00:20:03;99733.06;;;29.41;50.32
39449;BME280;25151;45.566;9.382;2023-08-24T00:22:30;99732.28;;;29.41;50.32
39449;BME280;25151;45.566;9.382;2023-08-24T00:24:57;99738.75;;;29.41;49.98
39449;BME280;25151;45.566;9.382;2023-08-24T00:27:24;99746.75;;;29.49;50.07
39449;BME280;25151;45.566;9.382;2023-08-24T00:29:52;99752.44;;;29.49;50.32
39449;BME280;25151;45.566;9.382;2023-08-24T00:32:18;99741.59;;;29.47;49.84
39449;BME280;25151;45.566;9.382;2023-08-24T00:34:46;99752.19;;;29.47;50.22
39449;BME280;25151;45.566;9.382;2023-08-24T00:37:13;99733.06;;;29.41;49.87
39449;BME280;25151;45.566;9.382;2023-08-24T00:39:40;99740.03;;;29.40;50.32
39449;BME280;25151;45.566;9.382;2023-08-24T00:42:07;99736.94;;;29.38;49.96
39449;BME280;25151;45.566;9.382;2023-08-24T00:44:39;99733.59;;;29.40;50.28
39449;BME280;25151;45.566;9.382;2023-08-24T00:47:07;99730.75;;;29.40;50.09
39449;BME280;25151;45.566;9.382;2023-08-24T00:49:34;99736.94;;;29.44;49.99
39449;BME280;25151;45.566;9.382;2023-08-24T00:52:01;99731.03;;;29.42;50.28
39449;BME280;25151;45.566;9.382;2023-08-24T00:54:28;99745.75;;;29.46;50.21
39449;BME280;25151;45.566;9.382;2023-08-24T00:56:55;99741.34;;;29.39;50.12
39449;BME280;25151;45.566;9.382;2023-08-24T00:59:22;99750.63;;;29.46;50.10
39449;BME280;25151;45.566;9.382;2023-08-24T01:01:51;99752.97;;;29.47;49.91
39449;BME280;25151;45.566;9.382;2023-08-24T01:04:18;99737.19;;;29.40;50.03
39449;BME280;25151;45.566;9.382;2023-08-24T01:06:45;99750.91;;;29.42;49.88
39449;BME280;25151;45.566;9.382;2023-08-24T01:09:12;99752.19;;;29.47;49.85
39449;BME280;25151;45.566;9.382;2023-08-24T01:16:58;99751.44;;;29.46;49.90
39449;BME280;25151;45.566;9.382;2023-08-24T01:19:43;99747.53;;;29.44;50.01
39449;BME280;25151;45.566;9.382;2023-08-24T01:27:36;99752.69;;;29.39;49.90
39449;BME280;25151;45.566;9.382;2023-08-24T01:30:04;99759.16;;;29.46;50.34
39449;BME280;25151;45.566;9.382;2023-08-24T01:32:32;99742.88;;;29.40;49.97
39449;BME280;25151;45.566;9.382;2023-08-24T01:35:01;99747.00;;;29.39;49.97
39449;BME280;25151;45.566;9.382;2023-08-24T01:37:29;99745.47;;;29.38;50.32
39449;BME280;25151;45.566;9.382;2023-08-24T01:42:26;99736.94;;;29.38;49.86
39449;BME280;25151;45.566;9.382;2023-08-24T01:44:57;99731.28;;;29.38;49.88
39449;BME280;25151;45.566;9.382;2023-08-24T01:47:26;99747.78;;;29.46;49.90
39449;BME280;25151;45.566;9.382;2023-08-24T01:49:53;99736.94;;;29.38;50.32
39449;BME280;25151;45.566;9.382;2023-08-24T01:52:21;99742.09;;;29.46;50.21
39449;BME280;25151;45.566;9.382;2023-08-24T01:54:49;99740.84;;;29.47;50.04
39449;BME280;25151;45.566;9.382;2023-08-24T01:57:16;99733.84;;;29.36;50.01
39449;BME280;25151;45.566;9.382;2023-08-24T01:59:42;99732.53;;;29.37;50.21
39449;BME280;25151;45.566;9.382;2023-08-24T02:02:09;99721.44;;;29.39;50.00
39449;BME280;25151;45.566;9.382;2023-08-24T02:04:37;99738.50;;;29.45;49.84
39449;BME280;25151;45.566;9.382;2023-08-24T02:07:03;99739.25;;;29.46;50.26
39449;BME280;25151;45.566;9.382;2023-08-24T02:09:30;99726.38;;;29.39;50.08
39449;BME280;25151;45.566;9.382;2023-08-24T02:11:57;99740.06;;;29.46;49.81
39449;BME280;25151;45.566;9.382;2023-08-24T02:14:24;99722.47;;;29.36;50.24
39449;BME280;25151;45.566;9.382;2023-08-24T02:16:51;99727.38;;;29.41;50.16
39449;BME280;25151;45.566;9.382;2023-08-24T02:19:18;99716.81;;;29.42;49.88
39449;BME280;25151;45.566;9.382;2023-08-24T02:21:45;99724.28;;;29.39;49.99
39449;BME280;25151;45.566;9.382;2023-08-24T02:24:12;99716.25;;;29.38;49.83
39449;BME280;25151;45.566;9.382;2023-08-24T02:26:39;99733.59;;;29.46;49.92
39449;BME280;25151;45.566;9.382;2023-08-24T02:29:06;99736.44;;;29.46;50.26
39449;BME280;25151;45.566;9.382;2023-08-24T02:31:33;99729.97;;;29.45;49.83
39449;BME280;25151;45.566;9.382;2023-08-24T02:34:00;99726.84;;;29.37;49.80
39449;BME280;25151;45.566;9.382;2023-08-24T02:36:28;99727.13;;;29.45;49.94
39449;BME280;25151;45.566;9.382;2023-08-24T02:38:57;99727.13;;;29.45;49.92
39449;BME280;25151;45.566;9.382;2023-08-24T02:41:24;99735.66;;;29.45;49.84
39449;BME280;25151;45.566;9.382;2023-08-24T02:43:51;99731.03;;;29.42;49.87
39449;BME280;25151;45.566;9.382;2023-08-24T02:46:20;99728.44;;;29.44;50.15
39449;BME280;25151;45.566;9.382;2023-08-24T02:48:47;99727.13;;;29.39;50.00
39449;BME280;25151;45.566;9.382;2023-08-24T02:51:14;99727.91;;;29.46;50.34
39449;BME280;25151;45.566;9.382;2023-08-24T02:53:41;99747.78;;;29.46;50.31
39449;BME280;25151;45.566;9.382;2023-08-24T02:56:07;99725.84;;;29.40;50.22
39449;BME280;25151;45.566;9.382;2023-08-24T02:58:34;99730.75;;;29.40;50.21
39449;BME280;25151;45.566;9.382;2023-08-24T03:01:05;99732.53;;;29.26;50.85
39449;BME280;25151;45.566;9.382;2023-08-24T03:03:36;99733.53;;;29.12;49.80
39449;BME280;25151;45.566;9.382;2023-08-24T03:06:07;99733.72;;;28.97;49.51
39449;BME280;25151;45.566;9.382;2023-08-24T03:08:34;99739.59;;;28.93;49.10
39449;BME280;25151;45.566;9.382;2023-08-24T03:11:02;99737.53;;;28.88;49.13
39449;BME280;25151;45.566;9.382;2023-08-24T03:13:29;99733.16;;;28.87;48.67
39449;BME280;25151;45.566;9.382;2023-08-24T03:15:56;99747.56;;;28.84;48.00
39449;BME280;25151;45.566;9.382;2023-08-24T03:18:23;99732.81;;;28.74;48.17
39449;BME280;25151;45.566;9.382;2023-08-24T03:20:50;99728.19;;;28.71;47.97
39449;BME280;25151;45.566;9.382;2023-08-24T03:23:17;99743.16;;;28.77;47.58
39449;BME280;25151;45.566;9.382;2023-08-24T03:25:44;99738.50;;;28.74;47.00
39449;BME280;25151;45.566;9.382;2023-08-24T03:28:11;99724.00;;;28.61;47.40
39449;BME280;25151;45.566;9.382;2023-08-24T03:30:40;99743.09;;;28.66;47.28
39449;BME280;25151;45.566;9.382;2023-08-24T03:33:11;99729.41;;;28.59;46.52
39449;BME280;25151;45.566;9.382;2023-08-24T03:35:38;99739.47;;;28.60;46.45
39449;BME280;25151;45.566;9.382;2023-08-24T03:38:05;99748.47;;;28.58;46.40
39449;BME280;25151;45.566;9.382;2023-08-24T03:40:32;99750.81;;;28.60;46.16
39449;BME280;25151;45.566;9.382;2023-08-24T03:43:00;99736.28;;;28.47;46.53
39449;BME280;25151;45.566;9.382;2023-08-24T03:45:27;99747.16;;;28.54;45.91
39449;BME280;25151;45.566;9.382;2023-08-24T03:47:54;99750.75;;;28.49;45.83
39449;BME280;25151;45.566;9.382;2023-08-24T06:25:58;99797.75;;;27.98;42.63
39449;BME280;25151;45.566;9.382;2023-08-24T06:28:31;99813.03;;;28.06;43.04
39449;BME280;25151;45.566;9.382;2023-08-24T06:30:59;99798.31;;;28.02;42.80
39449;BME280;25151;45.566;9.382;2023-08-24T06:33:38;99811.75;;;28.07;42.91
39449;BME280;25151;45.566;9.382;2023-08-24T06:36:05;99806.59;;;28.05;42.69
39449;BME280;25151;45.566;9.382;2023-08-24T06:38:32;99794.69;;;28.01;43.19
39449;BME280;25151;45.566;9.382;2023-08-24T06:41:00;99795.78;;;28.04;42.88
39449;BME280;25151;45.566;9.382;2023-08-24T06:43:28;99801.97;;;28.08;43.18
39449;BME280;25151;45.566;9.382;2023-08-24T06:45:56;99803.78;;;28.11;43.07
39449;BME280;25151;45.566;9.382;2023-08-24T06:48:24;99796.75;;;28.01;43.13
39449;BME280;25151;45.566;9.382;2023-08-24T06:50:55;99806.06;;;28.07;43.20
39449;BME280;25151;45.566;9.382;2023-08-24T06:53:21;99808.91;;;28.07;43.11
39449;BME280;25151;45.566;9.382;2023-08-24T06:56:01;99795.22;;;28.00;42.66
39449;BME280;25151;45.566;9.382;2023-08-24T06:58:28;99818.78;;;28.11;42.71
39449;BME280;25151;45.566;9.382;2023-08-24T07:00:54;99814.09;;;28.08;42.59
39449;BME280;25151;45.566;9.382;2023-08-24T07:03:27;99800.88;;;28.00;42.54
39449;BME280;25151;45.566;9.382;2023-08-24T07:06:04;99798.75;;;27.94;42.92
39449;BME280;25151;45.566;9.382;2023-08-24T07:08:42;99798.94;;;27.85;42.56
39449;BME280;25151;45.566;9.382;2023-08-24T07:11:10;99824.38;;;28.06;42.52
39449;BME280;25151;45.566;9.382;2023-08-24T07:13:42;99808.84;;;27.96;42.13
39449;BME280;25151;45.566;9.382;2023-08-24T07:16:14;99814.00;;;27.97;42.19
39449;BME280;25151;45.566;9.382;2023-08-24T07:18:42;99815.75;;;27.94;42.10
39449;BME280;25151;45.566;9.382;2023-08-24T07:21:11;99810.88;;;27.95;42.27
39449;BME280;25151;45.566;9.382;2023-08-24T07:23:40;99796.91;;;27.91;42.16
39449;BME280;25151;45.566;9.382;2023-08-24T07:26:09;99801.03;;;27.90;41.53
39449;BME280;25151;45.566;9.382;2023-08-24T07:28:39;99790.44;;;27.85;41.76
39449;BME280;25151;45.566;9.382;2023-08-24T07:31:10;99806.03;;;28.01;41.53
39449;BME280;25151;45.566;9.382;2023-08-24T07:33:43;99812.44;;;27.96;41.67
39449;BME280;25151;45.566;9.382;2023-08-24T07:36:13;99808.31;;;27.97;41.54
39449;BME280;25151;45.566;9.382;2023-08-24T07:38:40;99800.28;;;27.90;41.23
39449;BME280;25151;45.566;9.382;2023-08-24T07:41:12;99814.75;;;27.98;41.38
39449;BME280;25151;45.566;9.382;2023-08-24T07:43:39;99808.00;;;27.89;40.54
39449;BME280;25151;45.566;9.382;2023-08-24T07:46:06;99814.22;;;27.93;40.70
39449;BME280;25151;45.566;9.382;2023-08-24T07:48:34;99796.66;;;27.89;40.97
39449;BME280;25151;45.566;9.382;2023-08-24T07:51:03;99808.88;;;28.01;40.52
39449;BME280;25151;45.566;9.382;2023-08-24T07:53:30;99819.16;;;27.99;40.91
39449;BME280;25151;45.566;9.382;2023-08-24T07:56:00;99818.13;;;27.96;41.11
39449;BME280;25151;45.566;9.382;2023-08-24T07:58:29;99820.97;;;28.02;41.02
39449;BME280;25151;45.566;9.382;2023-08-24T08:00:59;99814.25;;;27.99;41.03
39449;BME280;25151;45.566;9.382;2023-08-24T08:03:28;99810.66;;;27.99;40.95
39449;BME280;25151;45.566;9.382;2023-08-24T08:05:56;99809.38;;;28.00;40.84
39449;BME280;25151;45.566;9.382;2023-08-24T08:08:26;99811.19;;;28.03;40.84
39449;BME280;25151;45.566;9.382;2023-08-24T08:10:59;99814.25;;;27.99;40.86
39449;BME280;25151;45.566;9.382;2023-08-24T08:13:26;99812.44;;;27.96;40.54
39449;BME280;25151;45.566;9.382;2023-08-24T08:15:56;99814.00;;;27.97;40.95
39449;BME280;25151;45.566;9.382;2023-08-24T08:18:31;99813.78;;;28.01;40.70
39449;BME280;25151;45.566;9.382;2023-08-24T08:20:56;99807.38;;;28.06;41.17
39449;BME280;25151;45.566;9.382;2023-08-24T08:23:25;99802.22;;;28.04;41.10
39449;BME280;25151;45.566;9.382;2023-08-24T08:25:51;99806.56;;;28.00;41.07
39449;BME280;25151;45.566;9.382;2023-08-24T08:28:21;99798.84;;;28.06;41.10
39449;BME280;25151;45.566;9.382;2023-08-24T08:30:50;99804.28;;;28.04;41.38
39449;BME280;25151;45.566;9.382;2023-08-24T08:33:19;99806.56;;;28.00;41.27
39449;BME280;25151;45.566;9.382;2023-08-24T08:35:50;99796.47;;;27.99;40.98
39449;BME280;25151;45.566;9.382;2023-08-24T08:38:24;99782.75;;;27.91;41.45
39449;BME280;25151;45.566;9.382;2023-08-24T08:41:05;99789.34;;;28.09;40.62
39449;BME280;25151;45.566;9.382;2023-08-24T08:43:38;99790.00;;;28.24;40.80
39449;BME280;25151;45.566;9.382;2023-08-24T08:46:05;99789.03;;;28.33;41.00
39449;BME280;25151;45.566;9.382;2023-08-24T08:48:38;99789.09;;;28.38;40.94
39449;BME280;25151;45.566;9.382;2023-08-24T08:51:06;99803.88;;;28.54;41.27
39449;BME280;25151;45.566;9.382;2023-08-24T08:53:35;99793.84;;;28.53;41.11
39449;BME280;25151;45.566;9.382;2023-08-24T08:56:03;99801.88;;;28.60;41.81
39449;BME280;25151;45.566;9.382;2023-08-24T08:58:31;99802.13;;;28.62;41.30
39449;BME280;25151;45.566;9.382;2023-08-24T09:00:57;99802.41;;;28.64;41.72
39449;BME280;25151;45.566;9.382;2023-08-24T09:03:26;99803.44;;;28.66;41.83
39449;BME280;25151;45.566;9.382;2023-08-24T09:05:57;99815.84;;;28.69;42.20
39449;BME280;25151;45.566;9.382;2023-08-24T09:08:23;99804.78;;;28.71;42.44
39449;BME280;25151;45.566;9.382;2023-08-24T09:10:49;99796.75;;;28.64;42.26
39449;BME280;25151;45.566;9.382;2023-08-24T09:13:20;99798.88;;;28.75;42.72
39449;BME280;25151;45.566;9.382;2023-08-24T09:15:46;99810.47;;;28.77;42.68
39449;BME280;25151;45.566;9.382;2023-08-24T09:18:15;99797.53;;;28.70;43.10
39449;BME280;25151;45.566;9.382;2023-08-24T09:20:42;99784.94;;;28.71;42.81
39449;BME280;25151;45.566;9.382;2023-08-24T09:23:17;99789.88;;;28.82;42.81
39449;BME280;25151;45.566;9.382;2023-08-24T09:25:47;99776.44;;;28.77;42.89
39449;BME280;25151;45.566;9.382;2023-08-24T09:28:15;99794.81;;;28.87;43.63
39449;BME280;25151;45.566;9.382;2023-08-24T09:30:53;99795.59;;;28.87;43.22
39449;BME280;25151;45.566;9.382;2023-08-24T09:33:22;99787.06;;;28.87;43.48
39449;BME280;25151;45.566;9.382;2023-08-24T09:35:55;99774.16;;;28.86;43.50
39449;BME280;25151;45.566;9.382;2023-08-24T09:38:27;99772.38;;;28.89;44.05
39449;BME280;25151;45.566;9.382;2023-08-24T09:40:56;99774.69;;;28.90;44.01
39449;BME280;25151;45.566;9.382;2023-08-24T09:43:23;99759.69;;;28.84;44.42
39449;BME280;25151;45.566;9.382;2023-08-24T09:45:56;99753.25;;;28.84;44.37
39449;BME280;25151;45.566;9.382;2023-08-24T09:48:23;99763.59;;;28.87;44.73
39449;BME280;25151;45.566;9.382;2023-08-24T09:50:51;99775.00;;;28.98;44.71
39449;BME280;25151;45.566;9.382;2023-08-24T09:53:22;99754.81;;;28.90;44.51
39449;BME280;25151;45.566;9.382;2023-08-24T09:56:02;99767.53;;;29.01;44.84
39449;BME280;25151;45.566;9.382;2023-08-24T09:58:30;99764.69;;;29.01;45.18
39449;BME280;25151;45.566;9.382;2023-08-24T10:00:58;99759.53;;;28.99;45.41
39449;BME280;25151;45.566;9.382;2023-08-24T10:03:28;99754.34;;;28.98;45.45
39449;BME280;25151;45.566;9.382;2023-08-24T10:05:57;99755.63;;;28.97;45.17
39449;BME280;25151;45.566;9.382;2023-08-24T10:08:37;99758.25;;;29.06;45.04
39449;BME280;25151;45.566;9.382;2023-08-24T10:11:06;99761.09;;;29.06;45.69
39449;BME280;25151;45.566;9.382;2023-08-24T10:13:44;99746.13;;;29.05;45.78
39449;BME280;25151;45.566;9.382;2023-08-24T10:16:12;99735.25;;;28.98;45.60
39449;BME280;25151;45.566;9.382;2023-08-24T10:18:40;99748.72;;;29.09;45.88
39449;BME280;25151;45.566;9.382;2023-08-24T10:21:08;99741.22;;;29.06;46.10
39449;BME280;25151;45.566;9.382;2023-08-24T10:23:35;99729.34;;;29.02;45.97
39449;BME280;25151;45.566;9.382;2023-08-24T10:26:06;99719.56;;;29.03;45.70
39449;BME280;25151;45.566;9.382;2023-08-24T10:28:34;99739.19;;;29.12;45.59
39449;BME280;25151;45.566;9.382;2023-08-24T10:31:02;99737.66;;;29.11;45.62
39449;BME280;25151;45.566;9.382;2023-08-24T10:33:29;99725.25;;;29.03;46.00
39449;BME280;25151;45.566;9.382;2023-08-24T10:35:57;99733.00;;;29.08;46.17
39449;BME280;25151;45.566;9.382;2023-08-24T10:38:27;99732.88;;;28.85;45.62
39449;BME280;25151;45.566;9.382;2023-08-24T10:41:01;99721.22;;;28.72;45.72
39449;BME280;25151;45.566;9.382;2023-08-24T10:43:34;99707.44;;;28.54;45.64
39449;BME280;25151;45.566;9.382;2023-08-24T10:46:01;99701.25;;;28.50;45.35
39449;BME280;25151;45.566;9.382;2023-08-24T10:49:18;99701.25;;;28.50;44.77
39449;BME280;25151;45.566;9.382;2023-08-24T10:51:24;99719.31;;;28.58;44.73
39449;BME280;25151;45.566;9.382;2023-08-24T10:53:59;99713.34;;;28.50;44.16
39449;BME280;25151;45.566;9.382;2023-08-24T10:56:38;99708.19;;;28.49;43.82
39449;BME280;25151;45.566;9.382;2023-08-24T10:59:16;99714.66;;;28.49;43.28
39449;BME280;25151;45.566;9.382;2023-08-24T11:01:56;99708.44;;;28.45;43.66
39449;BME280;25151;45.566;9.382;2023-08-24T11:04:24;99707.38;;;28.42;43.25
39449;BME280;25151;45.566;9.382;2023-08-24T11:06:55;99699.09;;;28.39;43.03
39449;BME280;25151;45.566;9.382;2023-08-24T11:09:23;99693.91;;;28.32;42.48
39449;BME280;25151;45.566;9.382;2023-08-24T11:12:02;99694.72;;;28.38;42.69
39449;BME280;25151;45.566;9.382;2023-08-24T11:14:31;99679.97;;;28.28;42.66
39449;BME280;25151;45.566;9.382;2023-08-24T11:17:17;99694.25;;;28.39;42.26
39449;BME280;25151;45.566;9.382;2023-08-24T11:19:52;99668.84;;;28.25;42.01
39449;BME280;25151;45.566;9.382;2023-08-24T11:22:18;99691.59;;;28.36;41.77
39449;BME280;25151;45.566;9.382;2023-08-24T11:24:45;99678.41;;;28.27;41.95
39449;BME280;25151;45.566;9.382;2023-08-24T11:27:12;99674.84;;;28.32;41.53
39449;BME280;25151;45.566;9.382;2023-08-24T11:29:38;99674.84;;;28.32;41.27
39449;BME280;25151;45.566;9.382;2023-08-24T11:32:05;99672.81;;;28.38;41.74
39449;BME280;25151;45.566;9.382;2023-08-24T11:34:33;99682.50;;;28.63;41.16
39449;BME280;25151;45.566;9.382;2023-08-24T11:37:02;99663.66;;;28.66;41.38
39449;BME280;25151;45.566;9.382;2023-08-24T11:39:29;99671.69;;;28.73;41.32
39449;BME280;25151;45.566;9.382;2023-08-24T11:42:02;99677.66;;;28.86;41.14
39449;BME280;25151;45.566;9.382;2023-08-24T11:44:30;99676.63;;;28.89;41.03
39449;BME280;25151;45.566;9.382;2023-08-24T11:47:11;99657.00;;;28.80;41.36
39449;BME280;25151;45.566;9.382;2023-08-24T11:49:38;99664.50;;;28.89;41.37
39449;BME280;25151;45.566;9.382;2023-08-24T11:52:05;99663.50;;;28.92;41.55
39449;BME280;25151;45.566;9.382;2023-08-24T11:54:35;99653.19;;;28.95;41.26
39449;BME280;25151;45.566;9.382;2023-08-24T11:57:18;99666.66;;;29.05;41.65
39449;BME280;25151;45.566;9.382;2023-08-24T11:59:49;99664.84;;;29.08;41.36
39449;BME280;25151;45.566;9.382;2023-08-24T12:02:19;99650.91;;;28.99;41.64
39449;BME280;25151;45.566;9.382;2023-08-24T12:04:53;99641.34;;;29.02;41.70
39449;BME280;25151;45.566;9.382;2023-08-24T12:07:31;99659.69;;;29.12;42.04
39449;BME280;25151;45.566;9.382;2023-08-24T12:10:01;99659.47;;;29.15;41.93
39449;BME280;25151;45.566;9.382;2023-08-24T12:12:32;99638.00;;;29.09;42.24
39449;BME280;25151;45.566;9.382;2023-08-24T12:15:04;99636.22;;;29.11;42.41
39449;BME280;25151;45.566;9.382;2023-08-24T12:17:42;99631.31;;;29.12;42.81
39449;BME280;25151;45.566;9.382;2023-08-24T12:20:19;99640.88;;;29.14;42.65
39449;BME280;25151;45.566;9.382;2023-08-24T12:22:54;99631.56;;;29.14;42.76
39449;BME280;25151;45.566;9.382;2023-08-24T12:25:25;99647.06;;;29.24;43.25
39449;BME280;25151;45.566;9.382;2023-08-24T12:28:07;99639.31;;;29.25;43.38
39449;BME280;25151;45.566;9.382;2023-08-24T12:30:55;99631.09;;;29.27;43.42
39449;BME280;25151;45.566;9.382;2023-08-24T12:33:26;99623.34;;;29.27;43.37
39449;BME280;25151;45.566;9.382;2023-08-24T12:35:54;99620.50;;;29.27;43.56
39449;BME280;25151;45.566;9.382;2023-08-24T12:38:24;99609.88;;;29.22;43.49
39449;BME280;25151;45.566;9.382;2023-08-24T12:40:53;99622.56;;;29.32;43.40
39449;BME280;25151;45.566;9.382;2023-08-24T12:43:21;99615.56;;;29.33;43.63
39449;BME280;25151;45.566;9.382;2023-08-24T12:45:48;99622.81;;;29.34;44.04
39449;BME280;25151;45.566;9.382;2023-08-24T12:48:14;99616.09;;;29.32;44.09
39449;BME280;25151;45.566;9.382;2023-08-24T12:50:42;99623.84;;;29.37;43.87
39449;BME280;25151;45.566;9.382;2023-08-24T12:53:09;99615.59;;;29.39;44.14
39449;BME280;25151;45.566;9.382;2023-08-24T12:55:45;99601.63;;;29.30;44.09
39449;BME280;25151;45.566;9.382;2023-08-24T12:58:21;99597.00;;;29.32;44.62
39449;BME280;25151;45.566;9.382;2023-08-24T13:00:54;99590.53;;;29.32;44.39
39449;BME280;25151;45.566;9.382;2023-08-24T13:03:25;99594.16;;;29.32;44.41
39449;BME280;25151;45.566;9.382;2023-08-24T13:05:53;99603.97;;;29.37;44.75
39449;BME280;25151;45.566;9.382;2023-08-24T13:08:19;99601.38;;;29.45;44.82
39449;BME280;25151;45.566;9.382;2023-08-24T13:10:46;99590.53;;;29.37;44.88
39449;BME280;25151;45.566;9.382;2023-08-24T13:13:12;99591.06;;;29.47;45.21
39449;BME280;25151;45.566;9.382;2023-08-24T13:15:39;99591.84;;;29.42;45.11
39449;BME280;25151;45.566;9.382;2023-08-24T13:18:16;99580.19;;;29.46;44.99
39449;BME280;25151;45.566;9.382;2023-08-24T13:20:49;99565.75;;;29.44;45.11
39449;BME280;25151;45.566;9.382;2023-08-24T13:23:19;99555.19;;;29.38;45.51
39449;BME280;25151;45.566;9.382;2023-08-24T13:25:46;99562.16;;;29.43;45.27
39449;BME280;25151;45.566;9.382;2023-08-24T13:28:16;99576.06;;;29.52;45.40
39449;BME280;25151;45.566;9.382;2023-08-24T13:30:43;99551.28;;;29.41;45.56
39449;BME280;25151;45.566;9.382;2023-08-24T13:33:10;99558.78;;;29.45;45.31
39449;BME280;25151;45.566;9.382;2023-08-24T13:35:38;99547.41;;;29.45;45.78
39449;BME280;25151;45.566;9.382;2023-08-24T13:38:07;99543.81;;;29.44;46.01
39449;BME280;25151;45.566;9.382;2023-08-24T13:40:34;99545.09;;;29.49;45.90
39449;BME280;25151;45.566;9.382;2023-08-24T13:43:04;99540.94;;;29.50;46.02
39449;BME280;25151;45.566;9.382;2023-08-24T13:45:31;99548.44;;;29.53;46.07
39449;BME280;25151;45.566;9.382;2023-08-24T13:48:00;99536.06;;;29.50;46.33
39449;BME280;25151;45.566;9.382;2023-08-24T13:50:27;99536.06;;;29.50;46.15
39449;BME280;25151;45.566;9.382;2023-08-24T13:52:54;99528.81;;;29.38;46.21
39449;BME280;25151;45.566;9.382;2023-08-24T13:55:27;99548.47;;;29.58;46.43
39449;BME280;25151;45.566;9.382;2023-08-24T13:57:57;99539.91;;;29.53;46.54
39449;BME280;25151;45.566;9.382;2023-08-24T14:00:26;99553.63;;;29.60;46.37
39449;BME280;25151;45.566;9.382;2023-08-24T14:02:52;99528.56;;;29.41;46.59
39449;BME280;25151;45.566;9.382;2023-08-24T14:05:23;99536.59;;;29.26;46.19
39449;BME280;25151;45.566;9.382;2023-08-24T14:07:54;99536.06;;;29.05;45.57
39449;BME280;25151;45.566;9.382;2023-08-24T14:10:20;99538.13;;;29.05;45.31
39449;BME280;25151;45.566;9.382;2023-08-24T14:12:51;99537.91;;;29.03;44.78
39449;BME280;25151;45.566;9.382;2023-08-24T14:15:21;99528.56;;;28.97;44.26
39449;BME280;25151;45.566;9.382;2023-08-24T14:17:50;99528.53;;;28.85;44.15
39449;BME280;25151;45.566;9.382;2023-08-24T14:20:21;99531.41;;;28.91;43.96
39449;BME280;25151;45.566;9.382;2023-08-24T14:22:49;99519.78;;;28.83;44.05
39449;BME280;25151;45.566;9.382;2023-08-24T14:25:27;99505.84;;;28.80;43.94
39449;BME280;25151;45.566;9.382;2023-08-24T14:27:58;99521.06;;;28.82;43.37
39449;BME280;25151;45.566;9.382;2023-08-24T14:30:30;99498.09;;;28.69;43.08
39449;BME280;25151;45.566;9.382;2023-08-24T14:33:04;99499.13;;;28.77;42.92
39449;BME280;25151;45.566;9.382;2023-08-24T14:35:35;99490.88;;;28.68;42.97
39449;BME280;25151;45.566;9.382;2023-08-24T14:38:13;99505.59;;;28.78;43.17
39449;BME280;25151;45.566;9.382;2023-08-24T14:40:39;99511.25;;;28.78;42.79
39449;BME280;25151;45.566;9.382;2023-08-24T14:43:09;99503.25;;;28.65;42.66
39449;BME280;25151;45.566;9.382;2023-08-24T14:45:35;99512.31;;;28.75;42.83
39449;BME280;25151;45.566;9.382;2023-08-24T14:48:05;99512.03;;;28.78;42.17
39449;BME280;25151;45.566;9.382;2023-08-24T14:50:41;99500.16;;;28.74;41.88
39449;BME280;25151;45.566;9.382;2023-08-24T14:53:11;99494.75;;;28.59;41.69
39449;BME280;25151;45.566;9.382;2023-08-24T14:55:40;99499.63;;;28.70;42.28
39449;BME280;25151;45.566;9.382;2023-08-24T14:58:10;99488.31;;;28.59;41.78
39449;BME280;25151;45.566;9.382;2023-08-24T15:00:37;99501.19;;;28.65;42.19
39449;BME280;25151;45.566;9.382;2023-08-24T15:03:06;99494.22;;;28.66;41.77
39449;BME280;25151;45.566;9.382;2023-08-24T15:05:51;99475.38;;;28.58;41.54
39449;BME280;25151;45.566;9.382;2023-08-24T15:08:21;99493.44;;;28.66;42.03
39449;BME280;25151;45.566;9.382;2023-08-24T15:10:53;99498.88;;;28.64;41.47
39449;BME280;25151;45.566;9.382;2023-08-24T15:13:20;99484.94;;;28.66;41.92
39449;BME280;25151;45.566;9.382;2023-08-24T15:15:45;99490.09;;;28.90;41.27
39449;BME280;25151;45.566;9.382;2023-08-24T15:18:14;99485.50;;;28.98;41.57
39449;BME280;25151;45.566;9.382;2023-08-24T15:20:39;99491.41;;;29.06;41.64
39449;BME280;25151;45.566;9.382;2023-08-24T15:23:07;99494.28;;;29.11;41.37
39449;BME280;25151;45.566;9.382;2023-08-24T15:25:35;99494.03;;;29.15;41.59
39449;BME280;25151;45.566;9.382;2023-08-24T15:28:02;99497.88;;;29.17;41.49
39449;BME280;25151;45.566;9.382;2023-08-24T15:30:29;99475.41;;;29.14;41.55
39449;BME280;25151;45.566;9.382;2023-08-24T15:32:56;99500.72;;;29.23;41.72
39449;BME280;25151;45.566;9.382;2023-08-24T15:35:22;99492.44;;;29.25;42.22
39449;BME280;25151;45.566;9.382;2023-08-24T15:37:48;99494.78;;;29.27;42.48
39449;BME280;25151;45.566;9.382;2023-08-24T15:40:20;99488.34;;;29.26;42.09
39449;BME280;25151;45.566;9.382;2023-08-24T15:42:49;99499.94;;;29.28;42.62
39449;BME280;25151;45.566;9.382;2023-08-24T15:45:21;99497.34;;;29.30;42.36
39449;BME280;25151;45.566;9.382;2023-08-24T15:47:51;99475.41;;;29.25;42.76
39449;BME280;25151;45.566;9.382;2023-08-24T15:50:20;99473.88;;;29.24;42.58
39449;BME280;25151;45.566;9.382;2023-08-24T15:52:46;99482.09;;;29.33;43.13
39449;BME280;25151;45.566;9.382;2023-08-24T15:55:15;99485.22;;;29.35;43.15
39449;BME280;25151;45.566;9.382;2023-08-24T15:57:42;99482.38;;;29.35;43.15
39449;BME280;25151;45.566;9.382;2023-08-24T16:00:12;99483.38;;;29.38;43.41